createdAt,value
2023-12-19T00:01:18.423Z,85.77
2023-12-19T00:03:49.928Z,85.70
2023-12-19T00:06:21.382Z,85.71
2023-12-19T00:08:52.625Z,85.79
2023-12-19T00:11:23.916Z,85.71
2023-12-19T00:13:55.517Z,85.78
2023-12-19T00:16:26.848Z,85.67
2023-12-19T00:18:58.410Z,85.65
2023-12-19T00:21:29.848Z,85.59
2023-12-19T00:24:01.046Z,85.59
2023-12-19T00:26:32.371Z,85.43
2023-12-19T00:29:03.754Z,85.41
2023-12-19T00:31:35.511Z,85.17
2023-12-19T00:34:06.978Z,85.19
2023-12-19T00:36:38.340Z,84.99
2023-12-19T00:39:10.532Z,85.05
2023-12-19T00:41:41.879Z,85.11
2023-12-19T00:44:13.449Z,85.04
2023-12-19T00:46:45.069Z,84.99
2023-12-19T00:49:16.471Z,85.05
2023-12-19T00:51:47.777Z,85.06
2023-12-19T00:54:19.757Z,85.15
2023-12-19T00:56:51.145Z,85.02
2023-12-19T00:59:23.118Z,85.02
2023-12-19T01:01:54.640Z,85.16
2023-12-19T01:04:26.504Z,85.13
2023-12-19T01:06:58.741Z,84.97
2023-12-19T01:09:30.281Z,85.04
2023-12-19T01:12:02.967Z,85.11
2023-12-19T01:14:34.436Z,84.98
2023-12-19T01:17:06.345Z,85.00
2023-12-19T01:19:38.485Z,84.70
2023-12-19T01:22:09.966Z,84.83
2023-12-19T01:24:41.319Z,84.69
2023-12-19T01:27:12.653Z,84.54
2023-12-19T01:29:43.960Z,84.41
2023-12-19T01:32:15.563Z,84.25
2023-12-19T01:34:48.038Z,84.31
2023-12-19T01:37:19.711Z,84.61
2023-12-19T01:39:51.217Z,84.54
2023-12-19T01:42:22.930Z,84.45
2023-12-19T01:45:11.565Z,84.40
2023-12-19T01:47:45.656Z,84.20
2023-12-19T01:50:18.773Z,84.33
2023-12-19T01:52:54.555Z,84.25
2023-12-19T01:55:28.545Z,84.23
2023-12-19T01:58:00.534Z,84.17
2023-12-19T02:00:32.535Z,84.03
2023-12-19T02:03:04.637Z,83.95
2023-12-19T02:05:41.500Z,83.89
2023-12-19T02:08:13.004Z,83.89
2023-12-19T02:10:45.511Z,83.66
2023-12-19T02:13:16.831Z,83.64
2023-12-19T02:15:48.558Z,83.30
2023-12-19T02:18:22.697Z,83.52
2023-12-19T02:20:55.035Z,83.38
2023-12-19T02:23:26.372Z,83.24
2023-12-19T02:25:58.236Z,83.26
2023-12-19T02:28:29.577Z,83.00
2023-12-19T02:31:01.007Z,83.03
2023-12-19T02:33:32.469Z,83.05
2023-12-19T02:36:03.801Z,83.02
2023-12-19T02:38:35.161Z,83.04
2023-12-19T02:41:08.948Z,82.92
2023-12-19T02:43:53.358Z,83.18
2023-12-19T02:46:26.665Z,83.04
2023-12-19T02:48:58.103Z,82.88
2023-12-19T02:51:30.632Z,82.97
2023-12-19T02:54:03.486Z,82.86
2023-12-19T02:56:35.644Z,82.94
2023-12-19T02:59:07.078Z,82.88
2023-12-19T03:01:38.395Z,82.72
2023-12-19T03:04:09.949Z,82.80
2023-12-19T03:06:41.478Z,82.98
2023-12-19T03:09:12.840Z,82.99
2023-12-19T03:11:58.806Z,82.66
2023-12-19T03:14:30.933Z,82.68
2023-12-19T03:17:03.261Z,82.75
2023-12-19T03:19:35.328Z,82.60
2023-12-19T03:22:07.370Z,82.65
2023-12-19T03:24:38.786Z,82.63
2023-12-19T03:27:10.142Z,82.70
2023-12-19T03:29:41.427Z,82.40
2023-12-19T03:32:12.866Z,82.42
2023-12-19T03:34:44.267Z,82.41
2023-12-19T03:37:15.661Z,82.48
2023-12-19T03:39:46.994Z,82.56
2023-12-19T03:42:18.446Z,82.60
2023-12-19T03:44:49.725Z,82.63
2023-12-19T03:47:21.021Z,82.55
2023-12-19T03:49:52.380Z,82.72
2023-12-19T03:52:24.913Z,82.89
2023-12-19T03:54:56.260Z,82.75
2023-12-19T03:57:28.809Z,82.93
2023-12-19T04:00:00.311Z,82.82
2023-12-19T04:02:31.760Z,82.84
2023-12-19T04:05:03.156Z,82.75
2023-12-19T04:07:34.507Z,82.71
2023-12-19T04:10:06.758Z,82.84
2023-12-19T04:12:38.741Z,82.91
2023-12-19T04:15:11.879Z,83.07
2023-12-19T04:17:41.804Z,83.28
2023-12-19T04:20:15.252Z,83.51
2023-12-19T04:22:46.751Z,83.81
2023-12-19T04:25:18.574Z,84.37
2023-12-19T04:27:49.900Z,84.80
2023-12-19T04:30:21.355Z,84.92
2023-12-19T04:32:53.707Z,85.16
2023-12-19T04:35:25.183Z,85.47
2023-12-19T04:37:56.437Z,85.85
2023-12-19T04:40:27.717Z,85.87
2023-12-19T04:42:59.045Z,85.79
2023-12-19T04:45:30.400Z,86.05
2023-12-19T04:48:01.763Z,86.16
2023-12-19T04:50:33.194Z,86.22
2023-12-19T04:53:04.641Z,86.32
2023-12-19T04:55:35.953Z,86.54
2023-12-19T04:58:07.406Z,86.59
2023-12-19T05:00:39.483Z,86.65
2023-12-19T05:03:10.919Z,86.61
2023-12-19T05:05:42.470Z,86.51
2023-12-19T05:08:15.324Z,86.65
2023-12-19T05:10:46.611Z,86.60
2023-12-19T05:13:17.953Z,86.77
2023-12-19T05:15:49.353Z,86.87
2023-12-19T05:18:20.911Z,87.15
2023-12-19T05:20:52.361Z,87.29
2023-12-19T05:23:23.700Z,87.29
2023-12-19T05:25:55.035Z,87.42
2023-12-19T05:28:26.414Z,87.63
2023-12-19T05:30:58.031Z,87.48
2023-12-19T05:33:31.264Z,87.51
2023-12-19T05:36:02.832Z,87.47
2023-12-19T05:38:34.568Z,87.50
2023-12-19T05:41:06.475Z,87.61
2023-12-19T05:43:37.832Z,87.73
2023-12-19T05:46:09.261Z,87.70
2023-12-19T05:48:42.293Z,87.74
2023-12-19T05:51:15.043Z,87.75
2023-12-19T05:53:46.442Z,87.66
2023-12-19T05:56:17.768Z,87.77
2023-12-19T05:58:49.416Z,87.75
2023-12-19T06:01:20.908Z,87.72
2023-12-19T06:03:53.026Z,87.75
2023-12-19T06:06:24.560Z,87.69
2023-12-19T06:08:56.401Z,87.62
2023-12-19T06:11:30.783Z,87.66
2023-12-19T06:14:02.102Z,87.66
2023-12-19T06:16:33.844Z,87.69
2023-12-19T06:19:06.762Z,87.65
2023-12-19T06:21:37.101Z,87.58
2023-12-19T06:24:09.775Z,87.64
2023-12-19T06:26:41.567Z,87.78
2023-12-19T06:29:12.832Z,87.62
2023-12-19T06:31:46.825Z,87.51
2023-12-19T06:34:18.417Z,87.47
2023-12-19T06:36:49.846Z,87.66
2023-12-19T06:39:21.153Z,87.62
2023-12-19T06:41:54.369Z,87.74
2023-12-19T06:44:25.914Z,87.74
2023-12-19T06:46:57.274Z,88.05
2023-12-19T06:49:28.862Z,88.28
2023-12-19T06:52:00.536Z,88.31
2023-12-19T06:54:33.575Z,88.45
2023-12-19T06:57:05.337Z,88.62
2023-12-19T06:59:36.637Z,88.73
2023-12-19T07:02:08.652Z,88.90
2023-12-19T07:04:39.919Z,88.91
2023-12-19T07:07:11.416Z,89.04
2023-12-19T07:09:42.710Z,88.90
2023-12-19T07:12:14.072Z,88.87
2023-12-19T07:14:45.341Z,88.84
2023-12-19T07:17:16.622Z,88.59
2023-12-19T07:19:48.458Z,88.54
2023-12-19T07:22:20.083Z,88.49
2023-12-19T07:24:51.409Z,88.49
2023-12-19T07:27:22.717Z,88.40
2023-12-19T07:29:54.056Z,88.14
2023-12-19T07:32:25.559Z,88.16
2023-12-19T07:34:56.908Z,88.19
2023-12-19T07:37:28.289Z,88.10
2023-12-19T07:40:00.839Z,87.93
2023-12-19T07:42:33.454Z,87.96
2023-12-19T07:45:07.698Z,87.78
2023-12-19T07:47:39.766Z,87.78
2023-12-19T07:50:12.897Z,87.79
2023-12-19T07:52:44.443Z,87.81
2023-12-19T07:55:16.376Z,87.86
2023-12-19T07:57:49.112Z,88.03
2023-12-19T08:00:22.132Z,88.23
2023-12-19T08:02:55.040Z,88.25
2023-12-19T08:05:26.500Z,88.30
2023-12-19T08:07:57.772Z,88.35
2023-12-19T08:10:29.023Z,88.44
2023-12-19T08:13:00.352Z,88.55
2023-12-19T08:15:31.803Z,88.64
2023-12-19T08:18:03.236Z,88.77
2023-12-19T08:20:34.909Z,88.79
2023-12-19T08:23:06.635Z,88.97
2023-12-19T08:25:40.074Z,88.98
2023-12-19T08:28:13.793Z,89.07
2023-12-19T08:30:45.463Z,89.15
2023-12-19T08:33:16.890Z,89.29
2023-12-19T08:35:48.230Z,89.40
2023-12-19T08:38:19.632Z,89.52
2023-12-19T08:40:50.877Z,89.61
2023-12-19T08:43:22.204Z,89.75
2023-12-19T08:45:53.578Z,89.90
2023-12-19T08:48:25.553Z,90.01
2023-12-19T08:50:57.725Z,90.07
2023-12-19T08:53:28.988Z,90.07
2023-12-19T08:56:00.334Z,90.02
2023-12-19T08:58:32.020Z,90.11
2023-12-19T09:01:03.504Z,90.03
2023-12-19T09:03:35.214Z,90.06
2023-12-19T09:06:08.173Z,90.09
2023-12-19T09:08:39.518Z,90.12
2023-12-19T09:11:10.964Z,90.04
2023-12-19T09:13:42.251Z,90.04
2023-12-19T09:16:13.769Z,90.14
2023-12-19T09:18:45.548Z,90.08
2023-12-19T09:21:18.264Z,90.06
2023-12-19T09:23:49.552Z,89.96
2023-12-19T09:26:21.143Z,90.02
2023-12-19T09:28:52.683Z,89.92
2023-12-19T09:31:24.225Z,89.72
2023-12-19T09:33:56.210Z,89.70
2023-12-19T09:36:27.778Z,89.50
2023-12-19T09:38:59.303Z,89.34
2023-12-19T09:41:30.769Z,89.41
2023-12-19T09:44:02.139Z,89.34
2023-12-19T09:46:34.752Z,89.13
2023-12-19T09:49:07.091Z,89.11
2023-12-19T09:51:44.727Z,89.12
2023-12-19T09:54:16.776Z,88.97
2023-12-19T09:56:48.688Z,88.71
2023-12-19T09:59:21.969Z,88.74
2023-12-19T10:01:54.465Z,88.54
2023-12-19T10:04:25.909Z,88.58
2023-12-19T10:07:01.208Z,88.46
2023-12-19T10:09:32.709Z,88.45
2023-12-19T10:12:12.310Z,88.24
2023-12-19T10:14:48.017Z,88.26
2023-12-19T10:17:20.796Z,88.25
2023-12-19T10:19:52.262Z,88.21
2023-12-19T10:22:23.990Z,88.07
2023-12-19T10:25:03.595Z,87.94
2023-12-19T10:27:35.358Z,87.89
2023-12-19T10:30:22.257Z,88.03
2023-12-19T10:32:58.788Z,88.03
2023-12-19T10:35:38.414Z,87.95
2023-12-19T10:38:10.516Z,87.82
2023-12-19T10:40:41.901Z,87.70
2023-12-19T10:43:13.239Z,87.75
2023-12-19T10:45:46.087Z,87.63
2023-12-19T10:48:17.613Z,87.59
2023-12-19T10:50:50.051Z,87.49
2023-12-19T10:53:21.852Z,87.33
2023-12-19T10:55:59.294Z,87.47
2023-12-19T10:58:30.594Z,87.41
2023-12-19T11:01:06.744Z,87.27
2023-12-19T11:03:48.626Z,86.99
2023-12-19T11:06:23.602Z,86.96
2023-12-19T11:08:59.267Z,86.84
2023-12-19T11:11:36.672Z,86.85
2023-12-19T11:14:08.108Z,86.71
2023-12-19T11:16:48.261Z,86.67
2023-12-19T11:19:24.565Z,86.54
2023-12-19T11:22:03.061Z,86.54
2023-12-19T11:24:38.841Z,86.60
2023-12-19T11:27:18.619Z,86.44
2023-12-19T11:29:52.621Z,86.48
2023-12-19T11:32:42.570Z,86.51
2023-12-19T11:35:15.941Z,86.40
2023-12-19T11:37:48.587Z,86.52
2023-12-19T11:40:49.963Z,86.49
2023-12-19T11:43:56.336Z,86.46
2023-12-19T11:46:28.171Z,86.36
2023-12-19T11:48:59.820Z,86.29
2023-12-19T11:51:56.587Z,86.23
2023-12-19T11:54:28.144Z,86.28
2023-12-19T11:57:04.492Z,86.23
2023-12-19T11:59:50.410Z,86.28
2023-12-19T12:02:35.447Z,86.15
2023-12-19T12:05:18.718Z,86.24
2023-12-19T12:07:52.551Z,86.20
2023-12-19T12:10:28.080Z,85.94
2023-12-19T12:13:01.063Z,85.96
2023-12-19T12:15:32.515Z,85.65
2023-12-19T12:18:08.840Z,85.85
2023-12-19T12:20:40.624Z,85.85
2023-12-19T12:23:12.033Z,85.76
2023-12-19T12:25:44.027Z,85.74
2023-12-19T12:28:18.930Z,85.66
2023-12-19T12:30:54.882Z,85.74
2023-12-19T12:33:28.865Z,85.77
2023-12-19T12:36:00.583Z,85.68
2023-12-19T12:38:32.179Z,85.65
2023-12-19T12:41:05.741Z,85.71
2023-12-19T12:43:39.958Z,85.72
2023-12-19T12:46:14.295Z,85.67
2023-12-19T12:49:01.496Z,85.60
2023-12-19T12:51:34.172Z,85.55
2023-12-19T12:54:05.755Z,85.66
2023-12-19T12:56:39.760Z,85.45
2023-12-19T12:59:15.264Z,85.43
2023-12-19T13:01:48.186Z,85.38
2023-12-19T13:04:19.291Z,85.40
2023-12-19T13:06:51.439Z,85.48
2023-12-19T13:09:23.141Z,85.68
2023-12-19T13:11:55.399Z,85.74
2023-12-19T13:14:26.896Z,86.02
2023-12-19T13:16:58.298Z,86.35
2023-12-19T13:19:29.814Z,86.21
2023-12-19T13:22:01.293Z,86.47
2023-12-19T13:24:34.519Z,86.45
2023-12-19T13:27:06.627Z,86.44
2023-12-19T13:29:37.903Z,86.39
2023-12-19T13:32:10.272Z,86.33
2023-12-19T13:34:42.411Z,86.31
2023-12-19T13:37:13.932Z,86.15
2023-12-19T13:39:45.250Z,86.22
2023-12-19T13:42:16.670Z,86.46
2023-12-19T13:44:48.136Z,86.58
2023-12-19T13:47:19.389Z,86.64
2023-12-19T13:49:50.834Z,86.84
2023-12-19T13:52:22.929Z,86.66
2023-12-19T13:54:54.440Z,86.76
2023-12-19T13:57:25.944Z,86.83
2023-12-19T13:59:57.202Z,86.64
2023-12-19T14:02:29.321Z,86.56
2023-12-19T14:05:00.793Z,86.47
2023-12-19T14:07:32.219Z,86.48
2023-12-19T14:10:05.992Z,86.55
2023-12-19T14:12:37.657Z,86.55
2023-12-19T14:15:14.893Z,86.45
2023-12-19T14:17:46.901Z,86.37
2023-12-19T14:20:19.232Z,86.17
2023-12-19T14:22:51.162Z,86.07
2023-12-19T14:25:22.787Z,86.17
2023-12-19T14:27:54.211Z,86.44
2023-12-19T14:30:25.774Z,86.58
2023-12-19T14:32:57.222Z,86.57
2023-12-19T14:35:28.571Z,86.54
2023-12-19T14:37:59.860Z,86.55
2023-12-19T14:40:31.244Z,86.67
2023-12-19T14:43:03.394Z,86.81
2023-12-19T14:45:34.914Z,86.89
2023-12-19T14:48:07.718Z,86.95
2023-12-19T14:50:39.166Z,87.02
2023-12-19T14:53:10.664Z,87.01
2023-12-19T14:55:42.395Z,87.11
2023-12-19T14:58:13.856Z,87.23
2023-12-19T15:00:45.609Z,87.20
2023-12-19T15:03:19.524Z,87.20
2023-12-19T15:05:50.858Z,87.33
2023-12-19T15:08:22.148Z,87.30
2023-12-19T15:10:53.884Z,87.43
2023-12-19T15:13:25.288Z,87.33
2023-12-19T15:15:56.636Z,87.32
2023-12-19T15:18:34.259Z,87.33
2023-12-19T15:21:13.973Z,87.45
2023-12-19T15:23:45.292Z,87.41
2023-12-19T15:26:16.555Z,87.37
2023-12-19T15:28:47.894Z,87.38
2023-12-19T15:31:19.327Z,87.30
2023-12-19T15:33:50.770Z,87.41
2023-12-19T15:36:22.241Z,87.52
2023-12-19T15:38:53.567Z,87.57
2023-12-19T15:41:24.884Z,87.52
2023-12-19T15:44:04.693Z,87.47
2023-12-19T15:46:43.161Z,87.64
2023-12-19T15:49:15.522Z,87.77
2023-12-19T15:51:47.291Z,87.82
2023-12-19T15:54:23.335Z,87.77
2023-12-19T15:56:54.638Z,87.86
2023-12-19T15:59:25.963Z,87.96
2023-12-19T16:01:57.247Z,88.01
2023-12-19T16:04:29.416Z,88.02
2023-12-19T16:07:01.141Z,88.04
2023-12-19T16:09:32.495Z,88.02
2023-12-19T16:12:03.925Z,88.19
2023-12-19T16:14:37.003Z,88.17
2023-12-19T16:17:08.689Z,88.30
2023-12-19T16:19:43.302Z,88.28
2023-12-19T16:22:14.755Z,88.32
2023-12-19T16:24:46.225Z,88.34
2023-12-19T16:27:22.618Z,88.52
2023-12-19T16:29:54.291Z,88.43
2023-12-19T16:32:25.520Z,88.58
2023-12-19T16:34:56.765Z,88.60
2023-12-19T16:37:29.684Z,88.68
2023-12-19T16:40:01.033Z,88.58
2023-12-19T16:42:32.565Z,88.51
2023-12-19T16:45:04.223Z,88.57
2023-12-19T16:47:35.777Z,88.56
2023-12-19T16:50:09.550Z,88.74
2023-12-19T16:52:41.082Z,88.64
2023-12-19T16:55:12.962Z,88.58
2023-12-19T16:57:44.452Z,88.68
2023-12-19T17:00:18.402Z,88.64
2023-12-19T17:02:49.739Z,88.59
2023-12-19T17:05:21.192Z,88.64
2023-12-19T17:07:54.002Z,88.54
2023-12-19T17:10:25.551Z,88.54
2023-12-19T17:12:57.003Z,88.54
2023-12-19T17:15:28.401Z,88.63
2023-12-19T17:17:59.748Z,88.44
2023-12-19T17:20:31.332Z,88.49
2023-12-19T17:23:02.618Z,88.53
2023-12-19T17:25:33.948Z,88.59
2023-12-19T17:28:06.089Z,88.39
2023-12-19T17:30:38.419Z,88.46
2023-12-19T17:33:10.476Z,88.36
2023-12-19T17:35:42.426Z,88.39
2023-12-19T17:38:15.526Z,88.37
2023-12-19T17:40:45.411Z,88.32
2023-12-19T17:43:17.665Z,88.29
2023-12-19T17:45:49.208Z,88.28
2023-12-19T17:48:20.762Z,88.39
2023-12-19T17:50:52.164Z,88.34
2023-12-19T17:53:24.087Z,88.36
2023-12-19T17:55:55.413Z,88.16
2023-12-19T17:58:26.674Z,88.15
2023-12-19T18:00:58.026Z,88.10
2023-12-19T18:03:31.398Z,88.15
2023-12-19T18:06:04.515Z,88.22
2023-12-19T18:08:39.134Z,88.20
2023-12-19T18:11:10.575Z,88.06
2023-12-19T18:13:41.925Z,88.04
2023-12-19T18:16:13.520Z,88.15
2023-12-19T18:18:45.113Z,88.14
2023-12-19T18:21:16.836Z,88.07
2023-12-19T18:23:48.133Z,88.22
2023-12-19T18:26:20.231Z,88.36
2023-12-19T18:28:51.571Z,88.32
2023-12-19T18:31:23.240Z,88.42
2023-12-19T18:33:54.785Z,88.47
2023-12-19T18:36:26.296Z,88.46
2023-12-19T18:38:57.782Z,88.51
2023-12-19T18:41:29.087Z,88.51
2023-12-19T18:44:00.551Z,88.50
2023-12-19T18:46:32.060Z,88.55
2023-12-19T18:49:03.752Z,88.53
2023-12-19T18:51:36.093Z,88.47
2023-12-19T18:54:09.556Z,88.53
2023-12-19T18:56:41.169Z,88.51
2023-12-19T18:59:13.151Z,88.52
2023-12-19T19:01:45.698Z,88.50
2023-12-19T19:04:17.086Z,88.50
2023-12-19T19:06:48.509Z,88.53
2023-12-19T19:09:19.904Z,88.55
2023-12-19T19:11:51.164Z,88.61
2023-12-19T19:14:22.449Z,88.47
2023-12-19T19:16:53.716Z,88.60
2023-12-19T19:19:25.229Z,88.74
2023-12-19T19:21:56.736Z,88.87
2023-12-19T19:24:28.741Z,88.80
2023-12-19T19:27:00.536Z,88.77
2023-12-19T19:29:31.937Z,88.77
2023-12-19T19:32:04.596Z,88.81
2023-12-19T19:34:40.478Z,88.93
2023-12-19T19:37:15.689Z,88.85
2023-12-19T19:39:47.570Z,88.85
2023-12-19T19:42:18.856Z,88.81
2023-12-19T19:44:50.118Z,88.98
2023-12-19T19:47:21.385Z,88.99
2023-12-19T19:49:53.685Z,89.03
2023-12-19T19:52:25.176Z,89.02
2023-12-19T19:54:58.185Z,89.07
2023-12-19T19:57:30.152Z,89.08
2023-12-19T20:00:01.818Z,89.13
2023-12-19T20:02:33.340Z,89.12
2023-12-19T20:05:05.154Z,88.99
2023-12-19T20:07:36.646Z,89.03
2023-12-19T20:10:09.597Z,89.14
2023-12-19T20:12:40.982Z,89.15
2023-12-19T20:15:14.708Z,89.31
2023-12-19T20:17:46.164Z,89.21
2023-12-19T20:20:18.194Z,89.19
2023-12-19T20:22:51.279Z,89.18
2023-12-19T20:25:23.611Z,89.21
2023-12-19T20:27:55.108Z,89.22
2023-12-19T20:30:26.507Z,89.18
2023-12-19T20:32:59.028Z,89.10
2023-12-19T20:35:30.610Z,89.02
2023-12-19T20:38:02.109Z,88.96
2023-12-19T20:40:33.581Z,89.08
2023-12-19T20:43:05.369Z,89.04
2023-12-19T20:45:37.130Z,88.96
2023-12-19T20:48:10.819Z,88.94
2023-12-19T20:50:44.162Z,88.90
2023-12-19T20:53:15.646Z,88.98
2023-12-19T20:55:47.318Z,89.01
2023-12-19T20:58:18.696Z,88.95
2023-12-19T21:01:02.267Z,88.83
2023-12-19T21:03:39.895Z,88.81
2023-12-19T21:06:13.031Z,88.73
2023-12-19T21:08:44.507Z,88.77
2023-12-19T21:11:15.865Z,88.72
2023-12-19T21:13:50.127Z,88.75
2023-12-19T21:16:21.567Z,88.68
2023-12-19T21:18:53.268Z,88.58
2023-12-19T21:21:24.771Z,88.69
2023-12-19T21:23:56.074Z,88.70
2023-12-19T21:26:27.336Z,88.67
2023-12-19T21:28:58.640Z,88.55
2023-12-19T21:31:29.948Z,88.54
2023-12-19T21:34:02.567Z,88.54
2023-12-19T21:36:33.991Z,88.54
2023-12-19T21:39:10.839Z,88.65
2023-12-19T21:41:43.329Z,88.53
2023-12-19T21:44:15.410Z,88.51
2023-12-19T21:46:46.714Z,88.40
2023-12-19T21:49:18.033Z,88.34
2023-12-19T21:51:49.415Z,88.39
2023-12-19T21:54:20.783Z,88.30
2023-12-19T21:56:52.195Z,88.41
2023-12-19T21:59:23.519Z,88.28
2023-12-19T22:01:55.167Z,88.14
2023-12-19T22:04:26.815Z,88.24
2023-12-19T22:06:58.995Z,88.32
2023-12-19T22:09:30.364Z,88.33
2023-12-19T22:12:02.125Z,88.19
2023-12-19T22:14:33.439Z,88.21
2023-12-19T22:17:05.237Z,88.28
2023-12-19T22:19:36.924Z,88.30
2023-12-19T22:22:11.766Z,88.31
2023-12-19T22:24:43.360Z,88.22
2023-12-19T22:27:16.772Z,88.18
2023-12-19T22:29:48.831Z,88.27
2023-12-19T22:32:20.118Z,88.30
2023-12-19T22:34:51.499Z,88.28
2023-12-19T22:37:22.860Z,88.20
2023-12-19T22:39:54.384Z,88.25
2023-12-19T22:42:25.709Z,88.16
2023-12-19T22:44:57.121Z,88.28
2023-12-19T22:47:28.454Z,88.23
2023-12-19T22:49:59.844Z,88.16
2023-12-19T22:52:31.159Z,88.13
2023-12-19T22:55:02.469Z,88.10
2023-12-19T22:57:33.821Z,88.08
2023-12-19T23:00:07.678Z,87.89
2023-12-19T23:02:39.071Z,87.97
2023-12-19T23:05:11.500Z,87.81
2023-12-19T23:07:42.949Z,87.80
2023-12-19T23:10:16.337Z,87.75
2023-12-19T23:12:48.233Z,87.76
2023-12-19T23:15:20.111Z,87.76
2023-12-19T23:17:52.694Z,87.68
2023-12-19T23:20:24.961Z,87.60
2023-12-19T23:22:56.484Z,87.59
2023-12-19T23:25:27.791Z,87.63
2023-12-19T23:27:59.292Z,87.60
2023-12-19T23:30:31.417Z,87.69
2023-12-19T23:33:02.827Z,87.64
2023-12-19T23:35:34.454Z,87.57
2023-12-19T23:38:06.553Z,87.51
2023-12-19T23:40:37.926Z,87.44
2023-12-19T23:43:09.263Z,87.59
2023-12-19T23:45:40.779Z,87.47
2023-12-19T23:48:12.147Z,87.51
2023-12-19T23:50:43.483Z,87.47
2023-12-19T23:53:14.760Z,87.47
2023-12-19T23:55:46.174Z,87.42
2023-12-19T23:58:17.449Z,87.59
